Time;durP1;ratioP1;P1;durP2;ratioP2;P2;SDS_P1;SDS_P2;PMS_P1;PMS_P2;Temp;Humidity;BMP_temperature;BMP_pressure;BME280_temperature;BME280_humidity;BME280_pressure;Samples;Min_cycle;Max_cycle;Signal;HPM_P1;HPM_P2
2021/10/11 00:05:10;;;;;;;34.20;22.80;;;;;;;1.11;63.59;100413.70;475606;1190;140975;-60
2021/10/11 00:15:17;;;;;;;36.00;24.10;;;;;;;0.94;63.81;100411.31;477596;1190;141504;-60
2021/10/11 00:25:23;;;;;;;38.60;24.20;;;;;;;0.75;64.27;100407.02;477396;1190;147508;-60
2021/10/11 00:35:29;;;;;;;40.00;26.60;;;;;;;0.67;64.54;100390.37;476732;1190;141366;-61
2021/10/11 00:45:35;;;;;;;35.30;22.50;;;;;;;0.67;64.87;100373.48;477060;1190;142899;-62
2021/10/11 00:55:42;;;;;;;39.90;25.20;;;;;;;0.62;64.95;100364.58;477229;1190;142013;-61
2021/10/11 01:05:48;;;;;;;48.30;31.00;;;;;;;0.59;65.05;100343.24;471010;1190;141344;-62
2021/10/11 01:15:54;;;;;;;52.90;30.10;;;;;;;0.45;65.01;100334.25;463242;1190;140694;-61
2021/10/11 01:26:00;;;;;;;35.80;21.90;;;;;;;0.17;65.19;100330.73;477539;1190;141520;-62
2021/10/11 01:36:06;;;;;;;32.80;20.10;;;;;;;-0.03;65.76;100317.67;470356;1190;141011;-61
2021/10/11 01:46:12;;;;;;;50.60;32.50;;;;;;;-0.20;66.28;100310.06;461341;1186;141170;-60
2021/10/11 01:56:19;;;;;;;34.50;22.00;;;;;;;-0.33;66.55;100301.73;476637;1190;142938;-61
2021/10/11 02:06:25;;;;;;;47.20;27.70;;;;;;;-0.33;67.08;100293.46;477377;1190;141621;-61
2021/10/11 02:16:31;;;;;;;36.00;23.30;;;;;;;-0.24;67.10;100273.78;474967;1190;142292;-60
2021/10/11 02:26:38;;;;;;;44.90;27.90;;;;;;;-0.23;67.09;100265.00;476654;1190;141634;-61
2021/10/11 02:36:44;;;;;;;46.80;25.90;;;;;;;-0.40;67.01;100250.86;469359;1190;140756;-60
2021/10/11 02:46:50;;;;;;;44.50;26.80;;;;;;;-0.55;67.61;100238.93;461126;1191;142365;-63
2021/10/11 02:56:55;;;;;;;41.90;25.20;;;;;;;-0.72;67.74;100235.27;476171;1190;143051;-61
2021/10/11 03:07:02;;;;;;;35.40;22.20;;;;;;;-0.73;68.29;100221.52;470621;1191;142176;-61
2021/10/11 03:17:08;;;;;;;37.70;23.10;;;;;;;-0.65;68.14;100214.08;475076;1191;141884;-61
2021/10/11 03:27:14;;;;;;;40.40;24.60;;;;;;;-0.60;68.34;100204.23;476959;1190;142457;-61
2021/10/11 03:37:20;;;;;;;40.20;23.80;;;;;;;-0.56;68.05;100195.95;477120;1190;141526;-61
2021/10/11 03:47:27;;;;;;;31.70;22.40;;;;;;;-0.68;67.89;100185.55;476592;1190;143231;-61
2021/10/11 03:57:33;;;;;;;39.50;24.20;;;;;;;-0.86;68.26;100183.46;474126;1190;142202;-60
2021/10/11 04:07:41;;;;;;;40.50;22.40;;;;;;;-1.01;68.43;100173.43;474555;1190;143188;-62
2021/10/11 04:17:48;;;;;;;38.70;22.30;;;;;;;-1.17;68.56;100161.33;476561;1190;145389;-61
2021/10/11 04:27:55;;;;;;;39.10;23.10;;;;;;;-1.18;68.92;100162.70;470827;1190;142022;-61
2021/10/11 04:38:02;;;;;;;35.10;20.60;;;;;;;-1.13;69.21;100156.15;471748;1190;142248;-61
2021/10/11 04:48:11;;;;;;;32.50;21.10;;;;;;;-1.10;69.03;100148.39;466794;1190;142521;-61
2021/10/11 04:58:18;;;;;;;36.70;22.00;;;;;;;-1.14;69.10;100146.88;477564;1190;141946;-61
2021/10/11 05:08:23;;;;;;;;;;;;;;;-1.21;69.56;100144.52;476629;1190;142273;-61
2021/10/11 05:18:29;;;;;;;37.90;22.90;;;;;;;-1.26;69.56;100133.21;477900;1190;127622;-62
2021/10/11 05:28:35;;;;;;;46.10;23.30;;;;;;;-1.23;69.79;100132.16;477503;1190;141813;-61
2021/10/11 05:38:41;;;;;;;45.80;23.00;;;;;;;-0.96;69.86;100137.13;471065;1190;145691;-62
2021/10/11 05:48:48;;;;;;;44.60;26.90;;;;;;;-0.33;69.87;100138.10;477535;1190;141894;-62
2021/10/11 05:58:54;;;;;;;38.80;24.00;;;;;;;2.02;69.04;100131.68;477449;1191;141837;-61
2021/10/11 06:09:00;;;;;;;43.80;26.50;;;;;;;7.67;63.85;100127.31;476706;1191;141053;-62
2021/10/11 06:19:06;;;;;;;39.00;26.30;;;;;;;12.42;56.99;100113.52;462569;1192;141092;-61
2021/10/11 06:29:12;;;;;;;39.30;26.40;;;;;;;16.36;50.66;100094.95;460674;1191;142618;-59
2021/10/11 06:39:19;;;;;;;31.20;23.50;;;;;;;19.49;45.29;100086.58;471195;1190;142016;-61
2021/10/11 06:49:26;;;;;;;29.10;22.50;;;;;;;22.12;40.42;100075.77;469374;1191;142145;-62
2021/10/11 06:59:31;;;;;;;35.40;26.70;;;;;;;24.45;36.81;100071.73;476768;1190;142451;-60
2021/10/11 07:09:39;;;;;;;31.00;25.90;;;;;;;26.40;33.03;100059.96;477761;1190;141134;-62
2021/10/11 07:19:46;;;;;;;30.90;23.20;;;;;;;26.81;30.89;100052.84;477595;1190;140665;-61
2021/10/11 07:29:52;;;;;;;31.70;24.40;;;;;;;26.40;29.20;100040.32;476837;1190;142218;-62
2021/10/11 07:39:58;;;;;;;29.20;24.30;;;;;;;26.94;27.78;100024.58;477696;1190;142187;-62
2021/10/11 07:50:03;;;;;;;;;;;;;;;29.15;26.56;100016.11;475694;1190;141023;-60
2021/10/11 08:00:13;;;;;;;24.40;22.00;;;;;;;31.83;24.31;99997.55;477098;1190;128251;-61
2021/10/11 08:10:20;;;;;;;27.20;23.70;;;;;;;33.06;22.58;99989.48;469676;1191;141249;-61
2021/10/11 08:20:26;;;;;;;17.80;15.90;;;;;;;34.74;21.28;99978.55;470589;1190;141546;-62
2021/10/11 08:30:33;;;;;;;14.10;11.80;;;;;;;36.55;19.34;99963.77;477751;1190;140952;-61
2021/10/11 08:40:39;;;;;;;16.30;12.30;;;;;;;38.04;18.08;99959.38;458281;1190;10002114;-60
2021/10/11 08:50:46;;;;;;;19.10;17.00;;;;;;;38.54;16.96;99955.81;460620;1190;140958;-60
2021/10/11 09:00:52;;;;;;;19.80;13.30;;;;;;;38.34;16.72;99944.86;462002;1190;142008;-68
2021/10/11 09:11:01;;;;;;;12.30;10.30;;;;;;;32.62;17.38;99935.50;475581;1190;140596;-63
2021/10/11 09:21:07;;;;;;;18.50;11.90;;;;;;;26.47;19.41;99945.10;475137;1192;141778;-64
2021/10/11 09:31:14;;;;;;;7.80;6.90;;;;;;;21.63;21.89;99947.91;463079;1190;145353;-63
2021/10/11 09:41:21;;;;;;;11.20;9.50;;;;;;;18.90;23.75;99950.70;475439;1190;141250;-64
2021/10/11 09:51:27;;;;;;;15.20;10.10;;;;;;;17.07;25.52;99939.73;462606;1191;141700;-65
2021/10/11 10:01:33;;;;;;;9.00;6.50;;;;;;;15.89;26.92;99941.70;474865;1190;145262;-67
2021/10/11 10:11:41;;;;;;;10.90;6.60;;;;;;;14.82;27.89;99943.74;474135;1191;140963;-75
2021/10/11 10:21:47;;;;;;;11.80;7.20;;;;;;;14.07;28.91;99936.84;476098;1192;140824;-64
2021/10/11 10:31:53;;;;;;;10.90;6.20;;;;;;;13.64;30.02;99925.43;465059;1191;140974;-61
2021/10/11 10:41:59;;;;;;;10.30;6.40;;;;;;;13.64;30.38;99912.09;466780;1191;140398;-57
2021/10/11 10:52:12;;;;;;;9.10;6.50;;;;;;;13.66;30.54;99896.11;463413;1184;141069;-63
2021/10/11 11:02:18;;;;;;;12.20;6.70;;;;;;;13.82;30.94;99880.52;475476;1191;140962;-68
2021/10/11 11:12:32;;;;;;;10.50;6.80;;;;;;;14.08;30.64;99860.19;468681;1191;141340;-67
2021/10/11 11:22:38;;;;;;;10.00;5.90;;;;;;;14.26;30.39;99844.59;477489;1191;142196;-69
2021/10/11 11:32:51;;;;;;;16.00;7.00;;;;;;;14.50;30.77;99833.05;477040;1191;141679;-67
2021/10/11 11:42:57;;;;;;;9.10;8.20;;;;;;;14.89;30.92;99817.07;477305;1192;140601;-68
2021/10/11 11:53:07;;;;;;;11.60;7.80;;;;;;;15.12;30.65;99809.09;469507;1190;142720;-60
2021/10/11 12:03:13;;;;;;;21.30;12.50;;;;;;;15.38;30.90;99803.17;477721;1190;140657;-62
2021/10/11 12:13:20;;;;;;;10.40;7.40;;;;;;;15.14;31.19;99793.48;472842;1191;141318;-62
2021/10/11 12:23:35;;;;;;;9.40;6.20;;;;;;;15.03;31.67;99795.33;476981;1190;141860;-62
2021/10/11 12:33:43;;;;;;;6.40;4.90;;;;;;;14.97;31.68;99788.76;477820;1190;140340;-62
2021/10/11 12:43:57;;;;;;;6.60;4.40;;;;;;;14.88;31.57;99779.27;469250;1191;10001842;-62
2021/10/11 12:54:06;;;;;;;10.50;5.70;;;;;;;14.82;31.35;99766.67;466928;1190;141469;-61
2021/10/11 13:04:12;;;;;;;11.40;5.80;;;;;;;14.81;31.53;99757.63;460713;1190;140376;-62
2021/10/11 13:14:19;;;;;;;10.50;5.30;;;;;;;14.66;31.70;99753.81;475297;1190;142323;-63
2021/10/11 13:24:25;;;;;;;12.70;6.50;;;;;;;14.25;32.37;99756.04;467606;1190;141330;-61
2021/10/11 13:35:18;;;;;;;14.60;7.60;;;;;;;13.75;33.42;99747.16;469105;1191;140917;-63
2021/10/11 16:00:46;;;;;;;16.20;11.60;;;;;;;10.26;44.15;99669.66;477388;1190;141679;-62
2021/10/11 16:10:52;;;;;;;18.10;10.60;;;;;;;10.01;44.99;99676.45;477428;1190;141271;-61
2021/10/11 16:20:58;;;;;;;20.30;12.50;;;;;;;9.78;45.79;99680.24;465078;1190;140888;-62
2021/10/11 16:31:05;;;;;;;38.90;21.40;;;;;;;9.57;46.58;99683.02;469708;1191;141086;-61
2021/10/11 16:41:13;;;;;;;34.50;17.80;;;;;;;9.33;47.49;99685.79;477509;1190;186644;-62
2021/10/11 16:51:18;;;;;;;;;;;;;;;9.00;48.83;99684.14;472033;1190;141253;-61
2021/10/11 17:01:24;;;;;;;63.50;27.30;;;;;;;8.73;49.67;99686.89;477639;1190;127579;-61
2021/10/11 17:11:34;;;;;;;59.50;26.30;;;;;;;8.46;50.38;99686.52;476683;1190;144451;-62
2021/10/11 17:21:41;;;;;;;61.30;29.70;;;;;;;8.18;51.25;99684.98;477498;1190;202129;-61
2021/10/11 17:31:47;;;;;;;41.70;23.40;;;;;;;8.01;51.97;99680.65;477548;1191;140467;-62
2021/10/11 17:41:53;;;;;;;39.60;19.90;;;;;;;7.88;52.83;99678.74;476682;1191;140970;-61
2021/10/11 17:51:59;;;;;;;45.10;21.80;;;;;;;7.74;53.45;99663.93;473753;1191;140770;-62
2021/10/11 18:02:06;;;;;;;54.70;28.50;;;;;;;7.53;53.93;99659.04;477384;1190;141901;-61
2021/10/11 18:12:13;;;;;;;48.60;26.70;;;;;;;7.29;54.69;99660.60;476546;1191;141066;-61
2021/10/11 18:22:19;;;;;;;49.20;25.20;;;;;;;7.07;55.43;99654.85;477521;1190;140333;-61
2021/10/11 18:32:24;;;;;;;59.10;28.30;;;;;;;6.90;56.22;99657.05;466318;1191;141150;-61
2021/10/11 18:42:30;;;;;;;57.40;28.20;;;;;;;6.84;56.80;99656.81;460294;1192;141484;-60
2021/10/11 18:52:37;;;;;;;32.90;21.10;;;;;;;6.78;57.31;99653.07;474336;1192;140957;-62
2021/10/11 19:02:56;;;;;;;28.30;18.90;;;;;;;6.76;57.97;99647.98;476555;1191;142407;-60
2021/10/11 19:13:03;;;;;;;33.20;20.20;;;;;;;6.74;58.67;99651.52;459210;1191;10001188;-60
2021/10/11 19:23:09;;;;;;;25.20;18.20;;;;;;;6.94;58.93;99646.91;475362;1184;142197;-60
2021/10/11 19:33:16;;;;;;;29.10;20.70;;;;;;;7.06;59.42;99642.34;475119;1190;141292;-62
2021/10/11 19:43:21;;;;;;;28.20;18.40;;;;;;;7.13;60.00;99632.92;474655;1190;140492;-61
2021/10/11 19:53:27;;;;;;;32.70;21.30;;;;;;;7.27;60.42;99630.70;467197;1190;141976;-63
2021/10/11 20:03:33;;;;;;;27.70;22.00;;;;;;;7.55;60.66;99627.04;461139;1190;140604;-62
2021/10/11 20:13:40;;;;;;;32.40;22.90;;;;;;;7.85;60.71;99620.98;467430;1190;142539;-63
2021/10/11 20:23:46;;;;;;;35.60;23.60;;;;;;;8.08;60.89;99615.41;461962;1190;141464;-62
2021/10/11 20:33:52;;;;;;;32.10;23.10;;;;;;;8.13;61.24;99615.00;468904;1190;141159;-63
2021/10/11 20:43:58;;;;;;;36.60;26.40;;;;;;;8.09;62.05;99611.37;470051;1190;142275;-62
2021/10/11 20:54:04;;;;;;;33.80;25.00;;;;;;;8.09;62.72;99606.67;466531;1190;141846;-62
2021/10/11 21:04:10;;;;;;;33.30;24.50;;;;;;;8.10;63.42;99607.13;468765;1190;141388;-62
2021/10/11 21:14:16;;;;;;;26.40;21.20;;;;;;;8.11;63.73;99604.65;472603;1190;143749;-62
2021/10/11 21:24:23;;;;;;;29.30;19.30;;;;;;;7.95;64.11;99594.52;465812;1190;140283;-60
2021/10/11 21:34:29;;;;;;;25.70;19.10;;;;;;;7.92;64.60;99588.60;452488;1190;10001668;-63
2021/10/11 21:44:35;;;;;;;27.20;20.00;;;;;;;7.71;64.88;99580.42;476993;1190;141658;-63
2021/10/11 21:54:42;;;;;;;24.00;19.90;;;;;;;7.45;65.36;99578.46;477680;1190;141743;-63
2021/10/11 22:04:48;;;;;;;27.30;18.40;;;;;;;7.42;66.17;99572.50;471611;1190;141361;-62
2021/10/11 22:14:55;;;;;;;31.20;21.10;;;;;;;7.46;66.44;99562.92;461018;1190;142461;-63
2021/10/11 22:25:01;;;;;;;27.50;19.80;;;;;;;7.41;66.77;99556.71;474018;1190;141808;-62
2021/10/11 22:35:09;;;;;;;33.10;22.00;;;;;;;7.52;66.86;99548.80;477249;1192;141143;-63
2021/10/11 22:45:15;;;;;;;27.60;21.70;;;;;;;7.50;67.08;99538.30;469982;1190;142283;-63
2021/10/11 22:55:23;;;;;;;30.70;23.80;;;;;;;7.43;67.47;99529.59;468849;1191;141250;-63
2021/10/11 23:05:33;;;;;;;39.80;26.50;;;;;;;7.38;67.75;99525.34;476906;1190;140803;-63
2021/10/11 23:15:39;;;;;;;35.30;24.70;;;;;;;7.34;67.86;99523.48;473405;1190;196064;-61
2021/10/11 23:25:45;;;;;;;35.90;25.00;;;;;;;7.39;68.22;99518.67;475415;1190;141590;-64
2021/10/11 23:35:51;;;;;;;35.60;26.90;;;;;;;7.42;68.46;99514.34;466649;1190;142331;-62
2021/10/11 23:45:57;;;;;;;37.90;25.10;;;;;;;7.40;68.53;99511.14;463766;1190;141290;-63
2021/10/11 23:56:03;;;;;;;31.60;23.70;;;;;;;7.21;68.76;99500.61;470592;1190;140523;-63
